Time;durP1;ratioP1;P1;durP2;ratioP2;P2;SDS_P1;SDS_P2;PMS_P1;PMS_P2;Temp;Humidity;BMP_temperature;BMP_pressure;BME280_temperature;BME280_humidity;BME280_pressure;Samples;Min_cycle;Max_cycle;Signal;HPM_P1;HPM_P2
2021/12/27 00:02:25;;;;;;;14.27;7.93;;;3.20;99.90;;;;;;4990714;28;20045;-58
2021/12/27 00:04:51;;;;;;;13.45;8.13;;;3.20;99.90;;;;;;4990695;28;20030;-58
2021/12/27 00:07:16;;;;;;;12.93;8.13;;;3.20;99.90;;;;;;4990860;28;20035;-56
2021/12/27 00:09:43;;;;;;;13.88;7.90;;;3.20;99.90;;;;;;4990720;28;20168;-59
2021/12/27 00:12:09;;;;;;;14.65;8.52;;;3.20;99.90;;;;;;4990698;28;20035;-57
2021/12/27 00:14:34;;;;;;;14.07;8.55;;;3.20;99.90;;;;;;4990915;28;20097;-57
2021/12/27 00:17:00;;;;;;;14.75;9.10;;;3.20;99.90;;;;;;4990809;28;20023;-57
2021/12/27 00:19:26;;;;;;;13.93;8.45;;;3.20;99.90;;;;;;4990860;28;20146;-54
2021/12/27 00:21:51;;;;;;;15.10;8.50;;;3.30;99.90;;;;;;4990971;28;20453;-59
2021/12/27 00:24:17;;;;;;;13.85;8.60;;;3.30;99.90;;;;;;4990480;28;20026;-58
2021/12/27 00:26:44;;;;;;;13.95;8.55;;;3.30;99.90;;;;;;4990461;28;20683;-59
2021/12/27 00:29:10;;;;;;;14.27;8.57;;;3.30;99.90;;;;;;4993883;28;20065;-58
2021/12/27 00:31:36;;;;;;;15.85;8.82;;;3.30;99.90;;;;;;4994720;28;20441;-57
2021/12/27 00:34:01;;;;;;;12.73;7.72;;;3.30;99.90;;;;;;4994415;28;20050;-59
2021/12/27 00:36:27;;;;;;;15.68;8.50;;;3.30;99.90;;;;;;4994374;28;20080;-59
2021/12/27 00:38:52;;;;;;;12.63;7.78;;;3.30;99.90;;;;;;4994052;28;20080;-59
2021/12/27 00:41:18;;;;;;;13.93;8.48;;;3.30;99.90;;;;;;4994247;28;20041;-57
2021/12/27 00:43:44;;;;;;;16.75;8.80;;;3.30;99.90;;;;;;4993885;28;20831;-59
2021/12/27 00:46:10;;;;;;;11.43;7.40;;;3.30;99.90;;;;;;4993905;28;20069;-58
2021/12/27 00:48:35;;;;;;;11.85;8.02;;;3.30;99.90;;;;;;4993824;28;20034;-59
2021/12/27 00:51:01;;;;;;;13.63;8.73;;;3.30;99.90;;;;;;4994052;28;20023;-59
2021/12/27 00:53:26;;;;;;;14.23;8.70;;;3.30;99.90;;;;;;4993809;28;20496;-59
2021/12/27 00:55:52;;;;;;;13.57;8.27;;;3.40;99.90;;;;;;4993512;28;20041;-58
2021/12/27 00:58:17;;;;;;;13.40;8.02;;;3.40;99.90;;;;;;5026058;23;20472;-57
2021/12/27 01:00:43;;;;;;;16.65;8.85;;;3.40;99.90;;;;;;5013012;28;20388;-58
2021/12/27 01:03:09;;;;;;;13.70;8.40;;;3.40;99.90;;;;;;5013114;28;20026;-58
2021/12/27 01:05:34;;;;;;;14.18;8.32;;;3.40;99.90;;;;;;5013347;28;20125;-58
2021/12/27 01:08:00;;;;;;;14.80;8.02;;;3.40;99.90;;;;;;5011915;28;20026;-55
2021/12/27 01:15:52;;;;;;;14.70;8.75;;;3.40;99.90;;;;;;4993660;28;20031;-56
2021/12/27 01:18:20;;;;;;;12.15;7.10;;;3.50;99.90;;;;;;4993574;28;20093;-55
2021/12/27 01:20:45;;;;;;;12.40;7.45;;;3.40;99.90;;;;;;4993278;28;20038;-53
2021/12/27 01:23:12;;;;;;;12.20;7.30;;;3.50;99.90;;;;;;4992977;28;20036;-55
2021/12/27 01:25:38;;;;;;;13.48;8.20;;;3.40;99.90;;;;;;4993145;28;20033;-56
2021/12/27 01:28:05;;;;;;;13.63;8.18;;;3.50;99.90;;;;;;4993402;28;20384;-57
2021/12/27 01:30:36;;;;;;;13.60;7.70;;;3.50;99.90;;;;;;4993314;28;20152;-56
2021/12/27 01:33:03;;;;;;;12.05;7.40;;;3.50;99.90;;;;;;4993063;28;20027;-57
2021/12/27 01:35:29;;;;;;;12.68;8.45;;;3.50;99.90;;;;;;4993365;28;20412;-54
2021/12/27 01:37:55;;;;;;;12.73;7.93;;;3.50;99.90;;;;;;4993419;28;20033;-55
2021/12/27 01:40:24;;;;;;;11.55;7.20;;;3.50;99.90;;;;;;4989807;28;20424;-56
2021/12/27 01:43:00;;;;;;;14.48;8.65;;;3.50;99.90;;;;;;4993253;28;20026;-56
2021/12/27 01:45:26;;;;;;;14.40;7.40;;;3.50;99.90;;;;;;4993511;28;20109;-58
2021/12/27 01:47:51;;;;;;;15.55;8.68;;;3.50;99.90;;;;;;4992669;28;20097;-58
2021/12/27 01:50:17;;;;;;;13.20;7.82;;;3.50;99.90;;;;;;4993125;28;20030;-57
2021/12/27 01:52:43;;;;;;;12.80;7.93;;;3.50;99.90;;;;;;4993116;28;20459;-58
2021/12/27 01:55:08;;;;;;;12.20;7.88;;;3.50;99.90;;;;;;4993000;28;20026;-58
2021/12/27 01:57:34;;;;;;;12.43;7.85;;;3.40;99.90;;;;;;4992822;28;20038;-58
2021/12/27 02:00:00;;;;;;;12.75;7.63;;;3.50;99.90;;;;;;4993187;28;20038;-56
2021/12/27 02:02:26;;;;;;;14.98;8.30;;;3.50;99.90;;;;;;4992811;28;20031;-58
2021/12/27 02:04:51;;;;;;;12.00;7.38;;;3.40;99.90;;;;;;4992569;28;20484;-58
2021/12/27 02:07:17;;;;;;;13.25;7.80;;;3.50;99.90;;;;;;4992975;28;20026;-58
2021/12/27 02:09:54;;;;;;;12.55;8.43;;;3.50;99.90;;;;;;4992416;28;20030;-58
2021/12/27 02:12:20;;;;;;;11.77;7.65;;;3.50;99.90;;;;;;4992591;28;20037;-58
2021/12/27 02:14:45;;;;;;;10.75;6.97;;;3.60;99.90;;;;;;4992519;28;20027;-58
2021/12/27 02:17:11;;;;;;;13.10;7.95;;;3.60;99.90;;;;;;4992573;28;20484;-58
2021/12/27 02:19:37;;;;;;;14.38;8.95;;;3.60;99.90;;;;;;4992687;28;20062;-58
2021/12/27 02:22:03;;;;;;;13.80;7.88;;;3.50;99.90;;;;;;4992585;28;20391;-55
2021/12/27 02:24:29;;;;;;;14.77;8.68;;;3.60;99.90;;;;;;4991797;28;20109;-57
2021/12/27 02:26:54;;;;;;;12.15;7.35;;;3.60;99.90;;;;;;4992149;28;20035;-56
2021/12/27 02:29:20;;;;;;;14.68;9.05;;;3.60;99.90;;;;;;4992306;28;20045;-56
2021/12/27 02:31:47;;;;;;;11.18;7.72;;;3.60;99.90;;;;;;4992135;28;20088;-57
2021/12/27 02:34:13;;;;;;;13.38;7.95;;;3.60;99.90;;;;;;4992204;28;20026;-56
2021/12/27 02:36:38;;;;;;;11.80;7.63;;;3.70;99.90;;;;;;4992289;28;20029;-57
2021/12/27 02:39:05;;;;;;;11.43;6.97;;;3.70;99.90;;;;;;4992073;28;20064;-57
2021/12/27 02:41:30;;;;;;;13.10;7.97;;;3.70;99.90;;;;;;4991849;28;20109;-56
2021/12/27 02:43:56;;;;;;;13.73;8.32;;;3.70;99.90;;;;;;4991950;28;20453;-56
2021/12/27 02:46:22;;;;;;;12.25;7.75;;;3.70;99.90;;;;;;4992138;28;20488;-57
2021/12/27 02:48:48;;;;;;;12.73;7.65;;;3.70;99.90;;;;;;4992004;28;20073;-55
2021/12/27 02:51:17;;;;;;;13.35;8.25;;;3.70;99.90;;;;;;4991150;28;20023;-58
2021/12/27 02:53:44;;;;;;;14.50;9.00;;;3.70;99.90;;;;;;4991912;28;20018;-58
2021/12/27 02:56:10;;;;;;;14.13;8.38;;;3.70;99.90;;;;;;4991398;28;20034;-56
2021/12/27 02:58:36;;;;;;;13.10;8.30;;;3.70;99.90;;;;;;4991591;28;20117;-57
2021/12/27 03:01:07;;;;;;;12.55;7.70;;;3.70;99.90;;;;;;4991914;28;20060;-58
2021/12/27 03:03:33;;;;;;;14.38;8.77;;;3.70;99.90;;;;;;4991642;28;20084;-54
2021/12/27 03:05:59;;;;;;;11.98;7.97;;;3.70;99.90;;;;;;4991848;28;20409;-56
2021/12/27 03:08:26;;;;;;;12.82;7.70;;;3.80;99.90;;;;;;4991413;28;20038;-58
2021/12/27 03:10:55;;;;;;;13.00;7.57;;;3.80;99.90;;;;;;4991471;28;20030;-58
2021/12/27 03:13:24;;;;;;;12.98;8.52;;;3.70;99.90;;;;;;4991715;28;20487;-57
2021/12/27 03:15:52;;;;;;;11.77;7.80;;;3.70;99.90;;;;;;4991849;28;20120;-57
2021/12/27 03:18:17;;;;;;;12.68;7.40;;;3.70;99.90;;;;;;4991626;28;20053;-57
2021/12/27 03:20:43;;;;;;;12.38;7.90;;;3.70;99.90;;;;;;4991557;28;20061;-54
2021/12/27 03:23:09;;;;;;;11.65;7.82;;;3.70;99.90;;;;;;4990877;28;20037;-55
2021/12/27 03:25:34;;;;;;;14.25;8.77;;;3.70;99.90;;;;;;4991261;28;20033;-58
2021/12/27 03:28:00;;;;;;;12.05;7.95;;;3.70;99.90;;;;;;4991376;28;20030;-55
2021/12/27 03:30:27;;;;;;;10.40;7.18;;;3.70;99.90;;;;;;4991459;28;20037;-57
2021/12/27 03:32:53;;;;;;;12.98;8.45;;;3.60;99.90;;;;;;4991233;28;20503;-57
2021/12/27 03:35:26;;;;;;;12.20;7.60;;;3.70;99.90;;;;;;4991087;28;20022;-53
2021/12/27 03:37:56;;;;;;;11.45;7.38;;;3.70;99.90;;;;;;4976158;28;20030;-55
2021/12/27 03:40:23;;;;;;;12.63;7.75;;;3.70;99.90;;;;;;4991126;28;20107;-54
2021/12/27 03:42:52;;;;;;;11.13;7.35;;;3.70;99.90;;;;;;4991150;28;20179;-54
2021/12/27 03:45:38;;;;;;;14.30;7.97;;;3.70;99.90;;;;;;4991316;28;20030;-53
2021/12/27 03:48:07;;;;;;;14.52;8.35;;;3.70;99.90;;;;;;4990995;28;20112;-56
2021/12/27 03:50:33;;;;;;;10.82;6.57;;;3.80;99.90;;;;;;4990958;28;20377;-56
2021/12/27 03:52:59;;;;;;;11.48;7.60;;;3.80;99.90;;;;;;4990874;28;20022;-57
2021/12/27 03:55:26;;;;;;;12.65;6.95;;;3.80;99.90;;;;;;4990920;28;20033;-56
2021/12/27 03:57:54;;;;;;;11.50;7.10;;;3.80;99.90;;;;;;4991074;28;20500;-53
2021/12/27 04:02:50;;;;;;;11.85;7.40;;;3.70;99.90;;;;;;4991761;28;20642;-57
2021/12/27 04:05:17;;;;;;;11.63;7.25;;;3.70;99.90;;;;;;4995134;28;20388;-56
2021/12/27 04:07:47;;;;;;;11.20;7.53;;;3.80;99.90;;;;;;4995329;28;20445;-55
2021/12/27 04:10:13;;;;;;;13.23;8.00;;;3.80;99.90;;;;;;4994712;28;20535;-56
2021/12/27 04:12:39;;;;;;;13.48;8.50;;;3.80;99.90;;;;;;4994994;28;20049;-56
2021/12/27 04:15:07;;;;;;;12.55;7.97;;;3.80;99.90;;;;;;4994828;28;20105;-58
2021/12/27 04:17:33;;;;;;;12.55;7.80;;;3.80;99.90;;;;;;4994603;28;20030;-58
2021/12/27 04:19:59;;;;;;;11.73;7.10;;;3.90;99.90;;;;;;4994906;28;20110;-57
2021/12/27 04:22:25;;;;;;;12.65;7.47;;;3.80;99.90;;;;;;4994752;28;20037;-58
2021/12/27 04:24:51;;;;;;;12.45;7.43;;;3.80;99.90;;;;;;4994292;28;20033;-58
2021/12/27 04:27:16;;;;;;;13.98;8.05;;;3.90;99.90;;;;;;4994523;28;20408;-56
2021/12/27 04:29:43;;;;;;;11.95;7.60;;;3.90;99.90;;;;;;4994861;28;20066;-56
2021/12/27 04:32:08;;;;;;;13.48;7.30;;;3.90;99.90;;;;;;4994407;28;20018;-58
2021/12/27 04:34:34;;;;;;;11.60;7.25;;;3.90;99.90;;;;;;4994297;28;20026;-58
2021/12/27 04:37:00;;;;;;;11.85;7.75;;;3.90;99.90;;;;;;4994452;28;20022;-58
2021/12/27 04:39:26;;;;;;;14.80;7.95;;;3.90;99.90;;;;;;4994280;28;20109;-57
2021/12/27 04:41:53;;;;;;;11.80;7.85;;;3.90;99.90;;;;;;4994210;28;20134;-58
2021/12/27 04:44:19;;;;;;;14.68;8.65;;;3.90;99.90;;;;;;4994063;28;20045;-57
2021/12/27 04:46:45;;;;;;;15.18;8.95;;;3.90;99.90;;;;;;4994414;28;20512;-56
2021/12/27 04:49:10;;;;;;;14.48;8.38;;;3.90;99.90;;;;;;4994188;28;20030;-58
2021/12/27 04:51:36;;;;;;;13.15;8.82;;;4.00;99.90;;;;;;4994256;28;20058;-57
2021/12/27 04:54:02;;;;;;;12.73;7.55;;;3.90;99.90;;;;;;4993924;28;20030;-57
2021/12/27 04:56:27;;;;;;;14.27;8.23;;;4.00;99.90;;;;;;4993965;28;20029;-57
2021/12/27 04:58:53;;;;;;;11.15;7.10;;;4.00;99.90;;;;;;4994045;28;20034;-55
2021/12/27 05:01:19;;;;;;;13.50;7.90;;;4.00;99.90;;;;;;4994031;28;20033;-56
2021/12/27 05:03:44;;;;;;;13.48;8.60;;;4.00;99.90;;;;;;4993893;28;20037;-57
2021/12/27 05:06:13;;;;;;;11.15;6.97;;;4.00;99.90;;;;;;4994100;28;20574;-54
2021/12/27 05:08:39;;;;;;;13.13;7.57;;;4.10;99.90;;;;;;4993766;28;20030;-57
2021/12/27 05:11:05;;;;;;;14.32;8.57;;;4.10;99.90;;;;;;4993425;28;20026;-58
2021/12/27 05:13:32;;;;;;;11.25;7.75;;;4.10;99.90;;;;;;4993905;28;20026;-58
2021/12/27 05:15:59;;;;;;;12.50;7.85;;;4.10;99.90;;;;;;4993042;28;20399;-58
2021/12/27 05:18:25;;;;;;;14.02;8.25;;;4.10;99.90;;;;;;4993851;28;20552;-59
2021/12/27 05:20:50;;;;;;;14.00;8.25;;;4.10;99.90;;;;;;4993755;28;20022;-57
2021/12/27 05:23:16;;;;;;;13.93;7.57;;;4.10;99.90;;;;;;4993338;28;20084;-57
2021/12/27 05:25:42;;;;;;;12.98;7.72;;;4.10;99.90;;;;;;4993227;28;20519;-58
2021/12/27 05:28:09;;;;;;;12.20;7.53;;;4.10;99.90;;;;;;4993521;28;20041;-57
2021/12/27 05:30:35;;;;;;;11.80;7.35;;;4.10;99.90;;;;;;4993574;28;20076;-59
2021/12/27 05:33:01;;;;;;;11.73;8.20;;;4.10;99.90;;;;;;4993373;28;20030;-55
2021/12/27 05:35:26;;;;;;;12.38;7.70;;;4.10;99.90;;;;;;4993447;28;20038;-56
2021/12/27 05:37:52;;;;;;;11.52;7.38;;;4.10;99.90;;;;;;4993167;28;20030;-54
2021/12/27 05:40:22;;;;;;;12.93;7.85;;;4.20;99.90;;;;;;4993341;28;20041;-57
2021/12/27 05:42:49;;;;;;;13.65;7.20;;;4.20;99.90;;;;;;4993169;28;20069;-56
2021/12/27 05:45:16;;;;;;;12.50;7.93;;;4.20;99.90;;;;;;4993381;28;20038;-56
2021/12/27 05:47:41;;;;;;;12.07;7.15;;;4.20;99.90;;;;;;4993164;28;20381;-57
2021/12/27 05:50:08;;;;;;;12.93;8.15;;;4.20;99.90;;;;;;4993096;28;20035;-57
2021/12/27 05:52:34;;;;;;;12.90;7.20;;;4.20;99.90;;;;;;4993056;28;20022;-56
2021/12/27 05:54:59;;;;;;;12.43;7.40;;;4.20;99.90;;;;;;4992581;28;20065;-57
2021/12/27 05:57:25;;;;;;;11.20;7.05;;;4.20;99.90;;;;;;4992867;28;20039;-57
2021/12/27 05:59:50;;;;;;;10.82;7.32;;;4.20;99.90;;;;;;4993017;28;20030;-57
2021/12/27 06:02:16;;;;;;;10.10;6.60;;;4.20;99.90;;;;;;4992931;28;20033;-55
2021/12/27 06:04:41;;;;;;;12.23;6.85;;;4.20;99.90;;;;;;4992678;28;20045;-56
2021/12/27 06:07:07;;;;;;;10.68;6.72;;;4.30;99.90;;;;;;4992496;28;20042;-55
2021/12/27 06:09:33;;;;;;;14.77;7.38;;;4.30;99.90;;;;;;4992711;28;20128;-52
2021/12/27 06:11:58;;;;;;;9.90;6.60;;;4.20;99.90;;;;;;4992544;28;20063;-57
2021/12/27 06:14:24;;;;;;;11.30;6.53;;;4.20;99.90;;;;;;4992610;28;20033;-56
2021/12/27 06:16:49;;;;;;;12.25;6.75;;;4.20;99.90;;;;;;4992645;28;20032;-56
2021/12/27 06:19:15;;;;;;;9.25;6.20;;;4.30;99.90;;;;;;4992562;28;20121;-56
2021/12/27 06:21:40;;;;;;;9.75;6.68;;;4.20;99.90;;;;;;4992539;28;20068;-54
2021/12/27 06:24:06;;;;;;;10.05;6.30;;;4.30;99.90;;;;;;4992406;28;20049;-56
2021/12/27 06:26:31;;;;;;;12.32;6.97;;;4.30;99.90;;;;;;4992119;28;20508;-56
2021/12/27 06:28:57;;;;;;;11.05;6.97;;;4.30;99.90;;;;;;4992265;28;20500;-55
2021/12/27 06:31:24;;;;;;;10.77;7.20;;;4.30;99.90;;;;;;4992308;28;20050;-57
2021/12/27 06:33:49;;;;;;;10.82;6.75;;;4.30;99.90;;;;;;4992127;28;20109;-55
2021/12/27 06:36:15;;;;;;;9.82;6.85;;;4.30;99.90;;;;;;4991867;28;20057;-55
2021/12/27 06:38:41;;;;;;;11.38;6.22;;;4.30;99.90;;;;;;4992283;28;20073;-55
2021/12/27 06:41:06;;;;;;;11.18;6.50;;;4.30;99.90;;;;;;4992033;28;20061;-57
2021/12/27 06:43:32;;;;;;;10.93;7.53;;;4.30;99.90;;;;;;4992124;28;20030;-57
2021/12/27 06:45:58;;;;;;;11.23;6.80;;;4.30;99.90;;;;;;4992268;28;20030;-58
2021/12/27 06:48:24;;;;;;;11.70;7.05;;;4.30;99.90;;;;;;4991757;28;20038;-57
2021/12/27 06:50:50;;;;;;;12.02;6.93;;;4.30;99.90;;;;;;4992056;28;20109;-60
2021/12/27 06:53:16;;;;;;;11.85;6.90;;;4.30;99.90;;;;;;4991839;28;20033;-59
2021/12/27 06:55:46;;;;;;;11.15;7.35;;;4.30;99.90;;;;;;4992010;28;20076;-58
2021/12/27 06:58:12;;;;;;;11.93;7.55;;;4.30;99.90;;;;;;5028958;23;20073;-59
2021/12/27 07:00:39;;;;;;;11.80;7.75;;;4.40;99.90;;;;;;5009779;28;20069;-58
2021/12/27 07:03:04;;;;;;;11.80;7.72;;;4.40;99.90;;;;;;4998909;28;20030;-59
2021/12/27 07:05:30;;;;;;;11.70;7.70;;;4.40;99.90;;;;;;4991793;28;20089;-58
2021/12/27 07:07:56;;;;;;;13.88;7.88;;;4.40;99.90;;;;;;4991760;28;20037;-57
2021/12/27 07:10:22;;;;;;;15.27;8.90;;;4.40;99.90;;;;;;4991687;28;20065;-59
2021/12/27 07:12:49;;;;;;;14.27;8.63;;;4.40;99.90;;;;;;4991492;28;20030;-59
2021/12/27 07:15:15;;;;;;;13.77;8.88;;;4.40;99.90;;;;;;4991797;28;20527;-59
2021/12/27 07:17:40;;;;;;;14.00;7.95;;;4.50;99.90;;;;;;4992757;28;20027;-58
2021/12/27 07:20:07;;;;;;;16.58;8.90;;;4.40;99.90;;;;;;4991447;28;20041;-58
2021/12/27 07:22:34;;;;;;;15.60;8.45;;;4.50;99.90;;;;;;4991511;28;20041;-60
2021/12/27 07:24:59;;;;;;;15.40;9.05;;;4.40;99.90;;;;;;4991012;28;20476;-59
2021/12/27 07:27:25;;;;;;;15.48;7.70;;;4.40;99.90;;;;;;4991677;28;20034;-58
2021/12/27 07:29:51;;;;;;;14.05;8.13;;;4.50;99.90;;;;;;4999483;28;20341;-58
2021/12/27 07:32:16;;;;;;;13.75;7.75;;;4.50;99.90;;;;;;5011354;28;20479;-58
2021/12/27 07:34:42;;;;;;;15.65;8.00;;;4.50;99.90;;;;;;5010861;28;20072;-59
2021/12/27 07:37:08;;;;;;;15.15;7.78;;;4.50;99.90;;;;;;5010507;28;20503;-58
2021/12/27 07:39:33;;;;;;;13.35;7.90;;;4.60;99.90;;;;;;4993003;28;20587;-59
2021/12/27 07:41:59;;;;;;;17.85;7.75;;;4.60;99.90;;;;;;5005323;28;20038;-59
2021/12/27 07:44:25;;;;;;;12.02;8.05;;;4.60;99.90;;;;;;5010704;28;20091;-60
2021/12/27 07:46:51;;;;;;;15.18;8.70;;;4.60;99.90;;;;;;5010861;28;20034;-59
2021/12/27 07:49:18;;;;;;;12.95;7.78;;;4.70;99.90;;;;;;5005322;28;20033;-56
2021/12/27 07:51:45;;;;;;;11.23;7.03;;;4.70;99.90;;;;;;4991193;28;20034;-56
2021/12/27 07:54:10;;;;;;;15.10;7.78;;;4.80;99.90;;;;;;4990997;28;20026;-58
2021/12/27 07:56:37;;;;;;;11.40;7.25;;;4.80;99.90;;;;;;4993711;28;20033;-59
2021/12/27 07:59:04;;;;;;;18.02;10.18;;;4.80;99.90;;;;;;4991120;28;20113;-59
2021/12/27 08:01:31;;;;;;;14.23;7.65;;;4.90;99.90;;;;;;4991187;28;20054;-59
2021/12/27 08:03:57;;;;;;;14.20;8.55;;;4.90;99.90;;;;;;4990891;28;20027;-59
2021/12/27 08:06:22;;;;;;;13.77;8.68;;;4.90;99.90;;;;;;4991103;28;20373;-59
2021/12/27 08:08:48;;;;;;;14.55;9.35;;;4.90;99.90;;;;;;4992865;28;20197;-59
2021/12/27 08:11:13;;;;;;;16.35;9.98;;;4.90;99.90;;;;;;5010450;28;20037;-59
2021/12/27 08:13:42;;;;;;;13.20;8.95;;;5.00;99.90;;;;;;5009200;28;20113;-58
2021/12/27 08:16:08;;;;;;;14.10;8.55;;;5.00;99.90;;;;;;5010036;28;20026;-60
2021/12/27 08:18:34;;;;;;;14.55;7.93;;;5.00;99.90;;;;;;5010631;28;20026;-59
2021/12/27 08:21:00;;;;;;;18.05;10.20;;;5.00;99.90;;;;;;5010663;28;20037;-59
2021/12/27 08:23:25;;;;;;;12.52;8.00;;;5.10;99.90;;;;;;5000090;28;20480;-58
2021/12/27 08:25:51;;;;;;;14.43;8.35;;;5.00;99.90;;;;;;4991172;28;20456;-57
2021/12/27 08:28:17;;;;;;;18.30;10.13;;;5.00;99.90;;;;;;4991052;28;20029;-59
2021/12/27 08:30:42;;;;;;;32.25;18.67;;;5.10;99.90;;;;;;4990915;28;20022;-60
2021/12/27 08:33:08;;;;;;;17.98;9.80;;;5.10;99.90;;;;;;4990550;28;20027;-58
2021/12/27 08:35:35;;;;;;;17.65;11.02;;;5.10;99.90;;;;;;4990911;28;20057;-58
2021/12/27 08:38:00;;;;;;;16.80;9.68;;;5.10;99.90;;;;;;4997280;28;20038;-60
2021/12/27 08:40:26;;;;;;;107.25;72.38;;;5.20;99.90;;;;;;5010159;28;20038;-60
2021/12/27 08:42:52;;;;;;;16.92;9.30;;;5.20;99.90;;;;;;5010100;28;20022;-60
2021/12/27 08:45:17;;;;;;;15.75;8.68;;;5.10;99.90;;;;;;5010404;28;20029;-59
2021/12/27 08:47:43;;;;;;;14.68;8.40;;;5.20;99.90;;;;;;5010326;28;20034;-60
2021/12/27 08:50:12;;;;;;;37.35;19.48;;;5.20;99.90;;;;;;5012398;28;20034;-60
2021/12/27 08:52:38;;;;;;;17.92;10.55;;;5.20;99.90;;;;;;5013989;28;20033;-59
2021/12/27 08:55:04;;;;;;;17.27;9.73;;;5.30;99.90;;;;;;5013906;28;20022;-58
2021/12/27 08:57:31;;;;;;;15.40;7.55;;;5.30;99.90;;;;;;5013676;28;20087;-59
2021/12/27 08:59:57;;;;;;;48.85;24.13;;;5.40;99.90;;;;;;5013627;28;20564;-56
2021/12/27 09:02:22;;;;;;;22.30;10.65;;;5.40;99.90;;;;;;5013663;28;20049;-59
2021/12/27 09:04:50;;;;;;;96.50;47.97;;;5.40;99.90;;;;;;5000390;28;20030;-59
2021/12/27 09:07:16;;;;;;;46.45;22.92;;;5.50;99.90;;;;;;4993989;28;20037;-59
2021/12/27 09:09:43;;;;;;;29.25;20.27;;;5.50;99.90;;;;;;4994070;28;20034;-60
2021/12/27 09:12:09;;;;;;;35.67;22.13;;;5.50;99.90;;;;;;4993884;28;20026;-60
2021/12/27 09:14:35;;;;;;;9.77;6.38;;;5.50;99.90;;;;;;4993770;28;20022;-60
2021/12/27 09:17:00;;;;;;;13.88;7.97;;;5.60;99.90;;;;;;4994576;28;20113;-60
2021/12/27 09:19:26;;;;;;;42.78;27.02;;;5.50;99.90;;;;;;5013217;28;20092;-60
2021/12/27 09:21:52;;;;;;;29.70;17.90;;;5.50;99.90;;;;;;5013346;28;20044;-60
2021/12/27 09:24:18;;;;;;;17.08;11.18;;;5.50;99.90;;;;;;5012898;28;20029;-59
2021/12/27 09:26:44;;;;;;;31.52;20.23;;;5.50;99.90;;;;;;5008310;28;20033;-60
2021/12/27 09:29:10;;;;;;;13.73;8.68;;;5.50;99.90;;;;;;5012969;28;20037;-60
2021/12/27 09:31:35;;;;;;;10.80;6.57;;;5.50;99.90;;;;;;5013089;28;20108;-60
2021/12/27 09:34:02;;;;;;;11.43;7.00;;;5.50;99.90;;;;;;5013080;28;20113;-58
2021/12/27 09:36:27;;;;;;;10.77;6.47;;;5.50;99.90;;;;;;5013103;28;20022;-60
2021/12/27 09:38:53;;;;;;;16.40;10.02;;;5.50;99.90;;;;;;5000702;28;20034;-60
2021/12/27 09:41:19;;;;;;;26.52;15.70;;;5.50;99.90;;;;;;4994413;28;20477;-60
2021/12/27 09:43:45;;;;;;;16.63;11.63;;;5.40;99.90;;;;;;4993301;28;20055;-60
2021/12/27 09:46:11;;;;;;;10.93;6.75;;;5.50;99.90;;;;;;4993344;28;20626;-60
2021/12/27 09:48:37;;;;;;;10.30;5.72;;;5.60;99.90;;;;;;4993262;28;20114;-60
2021/12/27 09:51:03;;;;;;;24.95;15.45;;;5.60;99.90;;;;;;4994201;28;20045;-59
2021/12/27 09:53:28;;;;;;;11.70;6.82;;;5.60;99.90;;;;;;5012731;28;20022;-60
2021/12/27 09:55:54;;;;;;;9.57;6.10;;;5.70;99.90;;;;;;5007774;28;20069;-58
2021/12/27 09:58:20;;;;;;;13.98;9.40;;;5.70;99.90;;;;;;5000009;28;20062;-59
2021/12/27 10:00:45;;;;;;;9.63;6.53;;;5.70;99.90;;;;;;4992499;28;20082;-60
2021/12/27 10:03:12;;;;;;;11.50;7.80;;;5.80;99.90;;;;;;4993182;28;20113;-60
2021/12/27 10:05:38;;;;;;;11.27;6.63;;;5.80;99.90;;;;;;5012555;28;20031;-60
2021/12/27 10:08:04;;;;;;;11.15;8.32;;;5.90;99.90;;;;;;5012361;28;20021;-60
2021/12/27 10:10:32;;;;;;;8.32;6.05;;;5.90;99.90;;;;;;5011322;28;20443;-60
2021/12/27 10:12:57;;;;;;;7.72;5.55;;;5.90;99.90;;;;;;5012041;28;20022;-60
2021/12/27 10:15:33;;;;;;;8.25;5.53;;;6.00;99.90;;;;;;5012522;28;20037;-60
2021/12/27 10:18:08;;;;;;;6.95;4.60;;;6.00;99.90;;;;;;5005168;28;20118;-60
2021/12/27 10:20:33;;;;;;;8.45;6.15;;;6.10;99.90;;;;;;5010472;28;20137;-60
2021/12/27 10:22:59;;;;;;;7.30;5.10;;;6.30;99.90;;;;;;5011723;28;20068;-60
2021/12/27 10:25:26;;;;;;;6.93;4.78;;;6.40;99.90;;;;;;5011873;28;20057;-59
2021/12/27 10:27:55;;;;;;;7.88;5.30;;;6.50;99.90;;;;;;5012319;28;20033;-60
2021/12/27 10:30:26;;;;;;;6.60;5.00;;;6.60;99.90;;;;;;5012132;28;20038;-60
2021/12/27 10:33:01;;;;;;;7.32;4.85;;;6.80;99.90;;;;;;5006238;28;20058;-59
2021/12/27 10:35:41;;;;;;;6.65;4.78;;;7.00;99.90;;;;;;4992432;28;20391;-58
2021/12/27 10:38:23;;;;;;;8.25;5.90;;;7.00;99.90;;;;;;4998433;28;20124;-59
2021/12/27 10:40:54;;;;;;;13.55;9.38;;;7.00;99.90;;;;;;5011956;28;20028;-59
2021/12/27 10:43:41;;;;;;;10.05;6.68;;;6.90;99.90;;;;;;5011825;28;20069;-59
2021/12/27 10:46:11;;;;;;;131.48;68.80;;;7.00;99.90;;;;;;5011136;28;20045;-59
2021/12/27 10:48:42;;;;;;;11.07;8.40;;;7.00;99.90;;;;;;5011240;28;20069;-60
2021/12/27 10:51:09;;;;;;;5.95;4.53;;;6.90;99.90;;;;;;5011796;28;20026;-59
2021/12/27 10:53:47;;;;;;;6.95;5.03;;;7.00;99.90;;;;;;5011570;28;20022;-60
2021/12/27 10:56:14;;;;;;;7.63;5.07;;;7.00;99.90;;;;;;5011278;28;20026;-61
2021/12/27 10:58:47;;;;;;;7.85;5.82;;;7.10;99.90;;;;;;5011687;28;20107;-59
2021/12/27 11:01:17;;;;;;;14.18;9.20;;;7.10;99.90;;;;;;5011520;28;20032;-59
2021/12/27 11:03:44;;;;;;;13.23;9.27;;;7.10;99.90;;;;;;5002490;28;20034;-60
2021/12/27 11:06:12;;;;;;;7.07;5.35;;;7.20;99.90;;;;;;5011488;28;20117;-58
2021/12/27 11:08:39;;;;;;;10.82;6.13;;;7.30;99.90;;;;;;5011234;28;20431;-60
2021/12/27 11:11:06;;;;;;;7.18;5.13;;;7.40;99.90;;;;;;5011084;28;20036;-60
2021/12/27 11:13:33;;;;;;;9.98;7.55;;;7.40;99.90;;;;;;5010291;28;20021;-59
2021/12/27 11:15:59;;;;;;;7.55;5.45;;;7.50;99.90;;;;;;5006672;28;20058;-57
2021/12/27 11:18:25;;;;;;;4.82;3.90;;;7.60;99.90;;;;;;4991691;28;20080;-58
2021/12/27 11:20:57;;;;;;;13.50;7.70;;;7.60;99.90;;;;;;4991770;28;20022;-60
2021/12/27 11:23:25;;;;;;;13.73;8.25;;;7.60;99.90;;;;;;4990908;28;20026;-60
2021/12/27 11:26:06;;;;;;;7.30;4.05;;;7.50;99.90;;;;;;4992864;28;20455;-59
2021/12/27 11:28:40;;;;;;;30.17;15.38;;;7.50;99.90;;;;;;4991384;28;20129;-58
2021/12/27 11:31:08;;;;;;;6.40;4.43;;;7.40;99.90;;;;;;4991388;28;20026;-60
2021/12/27 11:33:54;;;;;;;6.32;4.20;;;7.30;99.90;;;;;;4991420;28;20081;-60
2021/12/27 11:36:25;;;;;;;14.02;9.07;;;7.30;99.90;;;;;;4991571;28;20079;-60
2021/12/27 11:38:51;;;;;;;7.30;5.60;;;7.30;99.90;;;;;;5002702;28;20057;-58
2021/12/27 11:41:36;;;;;;;5.55;3.75;;;7.20;99.90;;;;;;5010728;28;20064;-60
2021/12/27 11:44:17;;;;;;;6.30;5.05;;;7.20;99.90;;;;;;5010968;28;20033;-60
2021/12/27 11:46:48;;;;;;;5.97;4.90;;;7.20;99.90;;;;;;5011134;28;20040;-60
2021/12/27 11:49:15;;;;;;;5.57;4.07;;;7.20;99.90;;;;;;5010799;28;20030;-59
2021/12/27 11:51:42;;;;;;;4.82;3.53;;;7.30;99.90;;;;;;5009232;28;20028;-58
2021/12/27 11:54:28;;;;;;;6.03;4.10;;;7.30;99.90;;;;;;4991036;28;20061;-59
2021/12/27 11:56:54;;;;;;;5.57;3.97;;;7.40;99.90;;;;;;4991325;28;20042;-58
2021/12/27 11:59:32;;;;;;;26.75;15.77;;;7.40;99.90;;;;;;4990905;28;20389;-60
2021/12/27 12:02:16;;;;;;;26.52;17.27;;;7.50;99.90;;;;;;4991347;28;20036;-60
2021/12/27 12:04:45;;;;;;;11.23;7.10;;;7.60;99.90;;;;;;4990965;28;20527;-60
2021/12/27 12:07:33;;;;;;;8.85;5.57;;;7.60;99.90;;;;;;4992245;28;20045;-60
2021/12/27 12:10:05;;;;;;;73.20;39.50;;;7.70;99.90;;;;;;4990917;28;20077;-60
2021/12/27 12:12:33;;;;;;;27.90;17.77;;;7.80;99.90;;;;;;4991199;28;20030;-60
2021/12/27 12:15:00;;;;;;;14.10;8.60;;;7.80;99.90;;;;;;4990752;28;20026;-58
2021/12/27 12:17:39;;;;;;;17.95;10.60;;;7.90;99.90;;;;;;4991055;28;20109;-59
2021/12/27 12:20:26;;;;;;;29.75;18.42;;;7.90;99.90;;;;;;4999550;28;20030;-60
2021/12/27 12:23:09;;;;;;;13.40;8.52;;;8.00;99.90;;;;;;5009694;28;20038;-60
2021/12/27 12:25:36;;;;;;;9.13;6.40;;;8.00;99.90;;;;;;5014208;28;20033;-60
2021/12/27 12:28:04;;;;;;;9.05;6.25;;;8.20;99.90;;;;;;5014397;28;20492;-60
2021/12/27 12:30:34;;;;;;;7.03;5.38;;;8.20;99.90;;;;;;5014234;28;20084;-60
2021/12/27 12:33:06;;;;;;;9.65;4.72;;;8.30;99.90;;;;;;5010952;28;20038;-60
2021/12/27 12:35:34;;;;;;;8.10;5.07;;;8.40;99.90;;;;;;4994597;28;20121;-60
2021/12/27 12:38:13;;;;;;;5.47;4.13;;;8.40;99.90;;;;;;4999441;28;20072;-60
2021/12/27 12:40:39;;;;;;;11.98;7.10;;;8.50;99.90;;;;;;5014030;28;20053;-59
2021/12/27 12:43:05;;;;;;;8.80;6.00;;;8.50;99.90;;;;;;5013891;28;20104;-60
2021/12/27 12:45:32;;;;;;;5.35;4.68;;;8.50;99.90;;;;;;5014079;28;20125;-59
2021/12/27 12:47:58;;;;;;;3.25;2.70;;;8.50;99.90;;;;;;5011852;28;20042;-60
2021/12/27 12:50:24;;;;;;;3.08;2.40;;;8.50;99.90;;;;;;5013894;28;20498;-60
2021/12/27 12:52:55;;;;;;;4.47;3.45;;;8.40;99.90;;;;;;5013893;28;20053;-60
2021/12/27 12:55:28;;;;;;;4.85;3.50;;;8.30;99.90;;;;;;5013908;28;20029;-60
2021/12/27 12:57:55;;;;;;;4.60;2.92;;;8.30;99.90;;;;;;5014020;28;20032;-60